sensor_id;sensor_type;location;lat;lon;timestamp;temperature;humidity
16517;DHT22;8371;52.272;9.746;2023-10-19T00:01:49;10.80;74.20
16517;DHT22;8371;52.272;9.746;2023-10-19T00:04:15;10.80;74.90
16517;DHT22;8371;52.272;9.746;2023-10-19T00:06:42;10.80;74.30
16517;DHT22;8371;52.272;9.746;2023-10-19T00:09:09;10.70;74.30
16517;DHT22;8371;52.272;9.746;2023-10-19T00:11:37;10.70;74.40
16517;DHT22;8371;52.272;9.746;2023-10-19T00:14:04;10.70;74.60
16517;DHT22;8371;52.272;9.746;2023-10-19T00:16:32;10.70;74.90
16517;DHT22;8371;52.272;9.746;2023-10-19T00:19:00;10.70;74.60
16517;DHT22;8371;52.272;9.746;2023-10-19T00:21:26;10.60;75.50
16517;DHT22;8371;52.272;9.746;2023-10-19T00:23:56;10.70;75.20
16517;DHT22;8371;52.272;9.746;2023-10-19T00:26:26;10.60;75.00
16517;DHT22;8371;52.272;9.746;2023-10-19T00:28:53;10.60;75.00
16517;DHT22;8371;52.272;9.746;2023-10-19T00:31:20;10.60;75.10
16517;DHT22;8371;52.272;9.746;2023-10-19T00:33:46;10.60;75.40
16517;DHT22;8371;52.272;9.746;2023-10-19T00:36:12;10.60;75.40
16517;DHT22;8371;52.272;9.746;2023-10-19T00:38:41;10.60;75.40
16517;DHT22;8371;52.272;9.746;2023-10-19T00:41:17;10.60;75.10
16517;DHT22;8371;52.272;9.746;2023-10-19T00:43:47;10.60;75.20
16517;DHT22;8371;52.272;9.746;2023-10-19T00:46:16;10.60;75.30
16517;DHT22;8371;52.272;9.746;2023-10-19T00:48:52;10.60;75.40
16517;DHT22;8371;52.272;9.746;2023-10-19T00:51:21;10.60;75.40
16517;DHT22;8371;52.272;9.746;2023-10-19T00:53:56;10.60;75.50
16517;DHT22;8371;52.272;9.746;2023-10-19T00:56:24;10.60;76.40
16517;DHT22;8371;52.272;9.746;2023-10-19T00:58:52;10.60;75.70
16517;DHT22;8371;52.272;9.746;2023-10-19T01:01:23;10.50;76.00
16517;DHT22;8371;52.272;9.746;2023-10-19T01:03:50;10.50;75.90
16517;DHT22;8371;52.272;9.746;2023-10-19T01:06:18;10.50;75.90
16517;DHT22;8371;52.272;9.746;2023-10-19T01:08:45;10.60;75.80
16517;DHT22;8371;52.272;9.746;2023-10-19T01:11:12;10.50;76.60
16517;DHT22;8371;52.272;9.746;2023-10-19T01:13:41;10.50;75.80
16517;DHT22;8371;52.272;9.746;2023-10-19T01:16:14;10.50;76.00
16517;DHT22;8371;52.272;9.746;2023-10-19T01:18:42;10.50;75.80
16517;DHT22;8371;52.272;9.746;2023-10-19T01:21:08;10.50;76.00
16517;DHT22;8371;52.272;9.746;2023-10-19T01:23:36;10.40;76.00
16517;DHT22;8371;52.272;9.746;2023-10-19T01:26:03;10.40;75.80
16517;DHT22;8371;52.272;9.746;2023-10-19T01:28:33;10.40;75.80
16517;DHT22;8371;52.272;9.746;2023-10-19T01:31:18;10.40;76.30
16517;DHT22;8371;52.272;9.746;2023-10-19T01:33:59;10.40;76.10
16517;DHT22;8371;52.272;9.746;2023-10-19T01:36:30;10.40;76.30
16517;DHT22;8371;52.272;9.746;2023-10-19T01:38:57;10.30;76.10
16517;DHT22;8371;52.272;9.746;2023-10-19T01:41:25;10.30;76.50
16517;DHT22;8371;52.272;9.746;2023-10-19T01:43:52;10.40;76.40
16517;DHT22;8371;52.272;9.746;2023-10-19T01:46:23;10.30;76.30
16517;DHT22;8371;52.272;9.746;2023-10-19T01:48:52;10.30;76.50
16517;DHT22;8371;52.272;9.746;2023-10-19T01:51:25;10.30;76.60
16517;DHT22;8371;52.272;9.746;2023-10-19T01:53:53;10.20;76.50
16517;DHT22;8371;52.272;9.746;2023-10-19T01:56:20;10.20;76.80
16517;DHT22;8371;52.272;9.746;2023-10-19T01:58:48;10.20;77.10
16517;DHT22;8371;52.272;9.746;2023-10-19T02:01:15;10.20;77.00
16517;DHT22;8371;52.272;9.746;2023-10-19T02:03:48;10.10;77.00
16517;DHT22;8371;52.272;9.746;2023-10-19T02:06:16;10.10;77.10
16517;DHT22;8371;52.272;9.746;2023-10-19T02:08:45;10.10;76.90
16517;DHT22;8371;52.272;9.746;2023-10-19T02:11:13;10.20;77.20
16517;DHT22;8371;52.272;9.746;2023-10-19T02:13:45;10.10;77.50
16517;DHT22;8371;52.272;9.746;2023-10-19T02:16:17;10.10;77.20
16517;DHT22;8371;52.272;9.746;2023-10-19T02:18:45;10.10;77.20
16517;DHT22;8371;52.272;9.746;2023-10-19T02:21:10;10.10;77.40
16517;DHT22;8371;52.272;9.746;2023-10-19T02:23:40;10.10;77.60
16517;DHT22;8371;52.272;9.746;2023-10-19T02:26:10;10.10;77.30
16517;DHT22;8371;52.272;9.746;2023-10-19T02:28:37;10.10;77.30
16517;DHT22;8371;52.272;9.746;2023-10-19T02:31:05;10.10;77.70
16517;DHT22;8371;52.272;9.746;2023-10-19T02:33:38;10.20;77.80
16517;DHT22;8371;52.272;9.746;2023-10-19T02:36:04;10.10;77.60
16517;DHT22;8371;52.272;9.746;2023-10-19T02:38:30;10.20;77.70
16517;DHT22;8371;52.272;9.746;2023-10-19T02:40:55;10.10;77.80
16517;DHT22;8371;52.272;9.746;2023-10-19T02:43:21;10.10;77.50
16517;DHT22;8371;52.272;9.746;2023-10-19T02:45:49;10.10;77.70
16517;DHT22;8371;52.272;9.746;2023-10-19T02:48:15;10.20;77.80
16517;DHT22;8371;52.272;9.746;2023-10-19T02:50:41;10.10;77.70
16517;DHT22;8371;52.272;9.746;2023-10-19T02:53:07;10.20;77.90
16517;DHT22;8371;52.272;9.746;2023-10-19T02:55:32;10.20;77.80
16517;DHT22;8371;52.272;9.746;2023-10-19T02:57:58;10.20;77.70
16517;DHT22;8371;52.272;9.746;2023-10-19T03:00:24;10.20;77.80
16517;DHT22;8371;52.272;9.746;2023-10-19T03:02:52;10.20;78.10
16517;DHT22;8371;52.272;9.746;2023-10-19T03:05:18;10.20;77.90
16517;DHT22;8371;52.272;9.746;2023-10-19T03:07:43;10.20;77.90
16517;DHT22;8371;52.272;9.746;2023-10-19T03:10:10;10.20;77.90
16517;DHT22;8371;52.272;9.746;2023-10-19T03:12:38;10.20;78.00
16517;DHT22;8371;52.272;9.746;2023-10-19T03:15:06;10.20;78.40
16517;DHT22;8371;52.272;9.746;2023-10-19T03:17:32;10.20;78.30
16517;DHT22;8371;52.272;9.746;2023-10-19T03:19:57;10.20;78.10
16517;DHT22;8371;52.272;9.746;2023-10-19T03:22:23;10.20;78.00
16517;DHT22;8371;52.272;9.746;2023-10-19T03:24:49;10.20;78.30
16517;DHT22;8371;52.272;9.746;2023-10-19T03:27:16;10.20;78.20
16517;DHT22;8371;52.272;9.746;2023-10-19T03:29:47;10.20;78.20
16517;DHT22;8371;52.272;9.746;2023-10-19T03:32:15;10.10;78.20
16517;DHT22;8371;52.272;9.746;2023-10-19T03:34:45;10.10;78.00
16517;DHT22;8371;52.272;9.746;2023-10-19T03:37:15;10.10;78.20
16517;DHT22;8371;52.272;9.746;2023-10-19T03:39:42;10.10;78.30
16517;DHT22;8371;52.272;9.746;2023-10-19T03:42:10;10.10;78.20
16517;DHT22;8371;52.272;9.746;2023-10-19T03:44:38;10.10;78.20
16517;DHT22;8371;52.272;9.746;2023-10-19T03:47:17;10.10;78.40
16517;DHT22;8371;52.272;9.746;2023-10-19T03:49:48;10.10;78.50
16517;DHT22;8371;52.272;9.746;2023-10-19T03:52:16;10.10;78.60
16517;DHT22;8371;52.272;9.746;2023-10-19T03:54:44;10.10;78.50
16517;DHT22;8371;52.272;9.746;2023-10-19T03:57:13;10.10;78.60
16517;DHT22;8371;52.272;9.746;2023-10-19T03:59:44;10.10;78.70
16517;DHT22;8371;52.272;9.746;2023-10-19T04:02:10;10.10;79.00
16517;DHT22;8371;52.272;9.746;2023-10-19T04:04:37;10.10;78.60
16517;DHT22;8371;52.272;9.746;2023-10-19T04:07:05;10.20;78.80
16517;DHT22;8371;52.272;9.746;2023-10-19T04:09:32;10.10;78.60
16517;DHT22;8371;52.272;9.746;2023-10-19T04:11:58;10.20;78.70
16517;DHT22;8371;52.272;9.746;2023-10-19T04:14:24;10.20;78.80
16517;DHT22;8371;52.272;9.746;2023-10-19T04:16:50;10.10;78.80
16517;DHT22;8371;52.272;9.746;2023-10-19T04:19:15;10.20;78.90
16517;DHT22;8371;52.272;9.746;2023-10-19T04:21:42;10.20;78.80
16517;DHT22;8371;52.272;9.746;2023-10-19T04:24:16;10.20;78.70
16517;DHT22;8371;52.272;9.746;2023-10-19T04:26:43;10.20;78.90
16517;DHT22;8371;52.272;9.746;2023-10-19T04:29:09;10.20;78.80
16517;DHT22;8371;52.272;9.746;2023-10-19T04:31:40;10.20;78.80
16517;DHT22;8371;52.272;9.746;2023-10-19T04:34:16;10.20;79.00
16517;DHT22;8371;52.272;9.746;2023-10-19T04:36:43;10.20;79.00
16517;DHT22;8371;52.272;9.746;2023-10-19T04:39:09;10.20;79.00
16517;DHT22;8371;52.272;9.746;2023-10-19T04:41:37;10.20;79.10
16517;DHT22;8371;52.272;9.746;2023-10-19T04:44:03;10.20;79.00
16517;DHT22;8371;52.272;9.746;2023-10-19T04:46:28;10.20;78.90
16517;DHT22;8371;52.272;9.746;2023-10-19T04:48:54;10.20;78.30
16517;DHT22;8371;52.272;9.746;2023-10-19T04:51:20;10.20;79.00
16517;DHT22;8371;52.272;9.746;2023-10-19T04:53:46;10.20;79.20
16517;DHT22;8371;52.272;9.746;2023-10-19T04:56:12;10.20;79.10
16517;DHT22;8371;52.272;9.746;2023-10-19T04:58:38;10.20;79.40
16517;DHT22;8371;52.272;9.746;2023-10-19T05:01:04;10.20;79.30
16517;DHT22;8371;52.272;9.746;2023-10-19T05:03:31;10.20;79.30
16517;DHT22;8371;52.272;9.746;2023-10-19T05:05:56;10.20;79.30
16517;DHT22;8371;52.272;9.746;2023-10-19T05:08:23;10.20;79.50
16517;DHT22;8371;52.272;9.746;2023-10-19T05:10:54;10.20;79.40
16517;DHT22;8371;52.272;9.746;2023-10-19T05:13:24;10.20;79.40
16517;DHT22;8371;52.272;9.746;2023-10-19T05:15:54;10.20;79.40
16517;DHT22;8371;52.272;9.746;2023-10-19T05:18:21;10.10;79.20
16517;DHT22;8371;52.272;9.746;2023-10-19T05:20:48;10.20;80.20
16517;DHT22;8371;52.272;9.746;2023-10-19T05:23:14;10.10;79.40
16517;DHT22;8371;52.272;9.746;2023-10-19T05:25:40;10.20;79.50
16517;DHT22;8371;52.272;9.746;2023-10-19T05:28:06;10.20;79.80
16517;DHT22;8371;52.272;9.746;2023-10-19T05:30:33;10.20;79.70
16517;DHT22;8371;52.272;9.746;2023-10-19T05:33:00;10.20;79.70
16517;DHT22;8371;52.272;9.746;2023-10-19T05:35:28;10.20;79.70
16517;DHT22;8371;52.272;9.746;2023-10-19T05:37:56;10.20;79.80
16517;DHT22;8371;52.272;9.746;2023-10-19T05:40:23;10.20;79.80
16517;DHT22;8371;52.272;9.746;2023-10-19T05:42:51;10.20;80.40
16517;DHT22;8371;52.272;9.746;2023-10-19T05:45:17;10.20;79.60
16517;DHT22;8371;52.272;9.746;2023-10-19T05:47:43;10.20;79.80
16517;DHT22;8371;52.272;9.746;2023-10-19T05:50:11;10.20;79.80
16517;DHT22;8371;52.272;9.746;2023-10-19T05:52:39;10.20;79.80
16517;DHT22;8371;52.272;9.746;2023-10-19T05:55:06;10.20;79.80
16517;DHT22;8371;52.272;9.746;2023-10-19T05:57:32;10.20;79.90
16517;DHT22;8371;52.272;9.746;2023-10-19T05:59:57;10.20;79.90
16517;DHT22;8371;52.272;9.746;2023-10-19T06:02:23;10.20;80.00
16517;DHT22;8371;52.272;9.746;2023-10-19T06:04:49;10.20;80.00
16517;DHT22;8371;52.272;9.746;2023-10-19T06:07:15;10.20;79.90
16517;DHT22;8371;52.272;9.746;2023-10-19T06:09:40;10.20;80.00
16517;DHT22;8371;52.272;9.746;2023-10-19T06:12:06;10.30;80.00
16517;DHT22;8371;52.272;9.746;2023-10-19T06:14:34;10.20;80.10
16517;DHT22;8371;52.272;9.746;2023-10-19T06:16:59;10.20;80.10
16517;DHT22;8371;52.272;9.746;2023-10-19T06:19:27;10.20;79.90
16517;DHT22;8371;52.272;9.746;2023-10-19T06:21:52;10.20;80.20
16517;DHT22;8371;52.272;9.746;2023-10-19T06:24:18;10.20;80.10
16517;DHT22;8371;52.272;9.746;2023-10-19T06:26:44;10.20;80.20
16517;DHT22;8371;52.272;9.746;2023-10-19T06:29:10;10.20;80.30
16517;DHT22;8371;52.272;9.746;2023-10-19T06:31:42;10.20;81.00
16517;DHT22;8371;52.272;9.746;2023-10-19T06:34:08;10.30;80.30
16517;DHT22;8371;52.272;9.746;2023-10-19T06:36:36;10.30;80.70
16517;DHT22;8371;52.272;9.746;2023-10-19T06:39:01;10.30;80.60
16517;DHT22;8371;52.272;9.746;2023-10-19T06:41:29;10.30;80.40
16517;DHT22;8371;52.272;9.746;2023-10-19T06:43:54;10.30;80.40
16517;DHT22;8371;52.272;9.746;2023-10-19T06:46:21;10.30;80.40
16517;DHT22;8371;52.272;9.746;2023-10-19T06:48:47;10.30;80.50
16517;DHT22;8371;52.272;9.746;2023-10-19T06:51:12;10.30;80.40
16517;DHT22;8371;52.272;9.746;2023-10-19T06:53:38;10.40;80.40
16517;DHT22;8371;52.272;9.746;2023-10-19T06:56:04;10.40;80.60
16517;DHT22;8371;52.272;9.746;2023-10-19T06:58:29;10.40;80.70
16517;DHT22;8371;52.272;9.746;2023-10-19T07:00:55;10.40;81.40
16517;DHT22;8371;52.272;9.746;2023-10-19T07:03:25;10.40;80.70
16517;DHT22;8371;52.272;9.746;2023-10-19T07:05:53;10.40;80.70
16517;DHT22;8371;52.272;9.746;2023-10-19T07:08:19;10.40;80.70
16517;DHT22;8371;52.272;9.746;2023-10-19T07:10:46;10.40;80.70
16517;DHT22;8371;52.272;9.746;2023-10-19T07:13:14;10.50;80.70
16517;DHT22;8371;52.272;9.746;2023-10-19T07:15:41;10.50;80.60
16517;DHT22;8371;52.272;9.746;2023-10-19T07:18:09;10.50;80.50
16517;DHT22;8371;52.272;9.746;2023-10-19T07:20:35;10.50;80.60
16517;DHT22;8371;52.272;9.746;2023-10-19T07:23:05;10.50;80.60
16517;DHT22;8371;52.272;9.746;2023-10-19T07:25:52;10.50;80.60
16517;DHT22;8371;52.272;9.746;2023-10-19T07:28:20;10.50;80.50
16517;DHT22;8371;52.272;9.746;2023-10-19T07:30:48;10.50;80.60
16517;DHT22;8371;52.272;9.746;2023-10-19T07:33:14;10.50;80.50
16517;DHT22;8371;52.272;9.746;2023-10-19T07:35:44;10.50;80.40
16517;DHT22;8371;52.272;9.746;2023-10-19T07:38:15;10.50;80.60
16517;DHT22;8371;52.272;9.746;2023-10-19T07:40:43;10.50;80.40
16517;DHT22;8371;52.272;9.746;2023-10-19T07:43:11;10.50;80.50
16517;DHT22;8371;52.272;9.746;2023-10-19T07:45:37;10.50;80.70
16517;DHT22;8371;52.272;9.746;2023-10-19T07:48:04;10.50;80.70
16517;DHT22;8371;52.272;9.746;2023-10-19T07:50:35;10.50;80.70
16517;DHT22;8371;52.272;9.746;2023-10-19T07:53:02;10.60;80.80
16517;DHT22;8371;52.272;9.746;2023-10-19T07:55:28;10.60;80.80
16517;DHT22;8371;52.272;9.746;2023-10-19T07:57:54;10.60;81.10
16517;DHT22;8371;52.272;9.746;2023-10-19T08:00:21;10.60;81.00
16517;DHT22;8371;52.272;9.746;2023-10-19T08:02:47;10.60;81.00
16517;DHT22;8371;52.272;9.746;2023-10-19T08:05:13;10.60;80.90
16517;DHT22;8371;52.272;9.746;2023-10-19T08:07:40;10.60;80.50
16517;DHT22;8371;52.272;9.746;2023-10-19T08:10:11;10.70;81.10
16517;DHT22;8371;52.272;9.746;2023-10-19T08:12:38;10.70;80.60
16517;DHT22;8371;52.272;9.746;2023-10-19T08:15:06;10.70;81.10
16517;DHT22;8371;52.272;9.746;2023-10-19T08:17:33;10.80;81.30
16517;DHT22;8371;52.272;9.746;2023-10-19T08:19:59;10.80;81.40
16517;DHT22;8371;52.272;9.746;2023-10-19T08:22:27;10.80;81.40
16517;DHT22;8371;52.272;9.746;2023-10-19T08:24:53;10.90;81.40
16517;DHT22;8371;52.272;9.746;2023-10-19T08:27:20;10.90;81.40
16517;DHT22;8371;52.272;9.746;2023-10-19T08:29:46;10.90;81.30
16517;DHT22;8371;52.272;9.746;2023-10-19T08:32:12;11.00;81.30
16517;DHT22;8371;52.272;9.746;2023-10-19T08:34:40;11.00;81.40
16517;DHT22;8371;52.272;9.746;2023-10-19T08:37:07;11.00;81.40
16517;DHT22;8371;52.272;9.746;2023-10-19T08:39:33;11.10;81.40
16517;DHT22;8371;52.272;9.746;2023-10-19T08:42:03;11.10;82.30
16517;DHT22;8371;52.272;9.746;2023-10-19T08:44:30;11.20;82.50
16517;DHT22;8371;52.272;9.746;2023-10-19T08:46:56;11.20;81.70
16517;DHT22;8371;52.272;9.746;2023-10-19T08:49:23;11.30;81.70
16517;DHT22;8371;52.272;9.746;2023-10-19T08:51:49;11.30;81.60
16517;DHT22;8371;52.272;9.746;2023-10-19T08:54:17;11.40;81.40
16517;DHT22;8371;52.272;9.746;2023-10-19T08:56:43;11.40;81.40
16517;DHT22;8371;52.272;9.746;2023-10-19T08:59:10;11.50;81.20
16517;DHT22;8371;52.272;9.746;2023-10-19T09:01:36;11.50;82.00
16517;DHT22;8371;52.272;9.746;2023-10-19T09:04:03;11.60;81.20
16517;DHT22;8371;52.272;9.746;2023-10-19T09:06:36;11.60;81.10
16517;DHT22;8371;52.272;9.746;2023-10-19T09:09:10;11.60;81.00
16517;DHT22;8371;52.272;9.746;2023-10-19T09:11:41;11.60;81.10
16517;DHT22;8371;52.272;9.746;2023-10-19T09:14:07;11.60;81.10
16517;DHT22;8371;52.272;9.746;2023-10-19T09:16:33;11.70;81.30
16517;DHT22;8371;52.272;9.746;2023-10-19T09:18:59;11.80;81.40
16517;DHT22;8371;52.272;9.746;2023-10-19T09:21:25;11.80;81.60
16517;DHT22;8371;52.272;9.746;2023-10-19T09:23:53;11.80;81.60
16517;DHT22;8371;52.272;9.746;2023-10-19T09:26:20;11.90;81.70
16517;DHT22;8371;52.272;9.746;2023-10-19T09:28:48;11.80;81.50
16517;DHT22;8371;52.272;9.746;2023-10-19T09:31:14;12.10;81.60
16517;DHT22;8371;52.272;9.746;2023-10-19T09:33:43;12.20;81.50
16517;DHT22;8371;52.272;9.746;2023-10-19T09:36:13;12.20;81.50
16517;DHT22;8371;52.272;9.746;2023-10-19T09:38:46;12.30;81.30
16517;DHT22;8371;52.272;9.746;2023-10-19T09:41:19;12.40;81.30
16517;DHT22;8371;52.272;9.746;2023-10-19T09:43:49;12.50;81.30
16517;DHT22;8371;52.272;9.746;2023-10-19T09:46:20;12.50;81.20
16517;DHT22;8371;52.272;9.746;2023-10-19T09:48:47;12.60;81.10
16517;DHT22;8371;52.272;9.746;2023-10-19T09:51:14;12.70;81.10
16517;DHT22;8371;52.272;9.746;2023-10-19T09:53:44;12.70;81.10
16517;DHT22;8371;52.272;9.746;2023-10-19T09:56:13;12.80;81.10
16517;DHT22;8371;52.272;9.746;2023-10-19T09:58:45;12.90;81.20
16517;DHT22;8371;52.272;9.746;2023-10-19T10:01:12;13.00;80.90
16517;DHT22;8371;52.272;9.746;2023-10-19T10:06:13;13.10;80.00
16517;DHT22;8371;52.272;9.746;2023-10-19T10:08:41;13.10;80.20
16517;DHT22;8371;52.272;9.746;2023-10-19T10:11:16;13.10;80.20
16517;DHT22;8371;52.272;9.746;2023-10-19T10:13:43;13.20;80.20
16517;DHT22;8371;52.272;9.746;2023-10-19T10:16:13;13.20;80.00
16517;DHT22;8371;52.272;9.746;2023-10-19T10:18:41;13.20;79.90
16517;DHT22;8371;52.272;9.746;2023-10-19T10:21:22;13.20;79.80
16517;DHT22;8371;52.272;9.746;2023-10-19T10:23:52;13.20;79.70
16517;DHT22;8371;52.272;9.746;2023-10-19T10:26:22;13.20;79.60
16517;DHT22;8371;52.272;9.746;2023-10-19T10:31:44;13.20;79.40
16517;DHT22;8371;52.272;9.746;2023-10-19T10:34:57;13.10;79.20
16517;DHT22;8371;52.272;9.746;2023-10-19T10:37:00;13.10;79.20
16517;DHT22;8371;52.272;9.746;2023-10-19T10:39:30;13.00;79.20
16517;DHT22;8371;52.272;9.746;2023-10-19T10:42:00;13.00;79.40
16517;DHT22;8371;52.272;9.746;2023-10-19T10:44:39;12.90;79.70
16517;DHT22;8371;52.272;9.746;2023-10-19T10:49:56;12.90;80.00
16517;DHT22;8371;52.272;9.746;2023-10-19T10:52:32;13.00;80.20
16517;DHT22;8371;52.272;9.746;2023-10-19T10:55:10;13.00;80.20
16517;DHT22;8371;52.272;9.746;2023-10-19T10:57:41;13.00;80.40
16517;DHT22;8371;52.272;9.746;2023-10-19T11:00:11;13.10;80.60
16517;DHT22;8371;52.272;9.746;2023-10-19T11:02:42;13.20;80.80
16517;DHT22;8371;52.272;9.746;2023-10-19T11:05:13;13.20;80.60
16517;DHT22;8371;52.272;9.746;2023-10-19T11:07:41;13.30;80.40
16517;DHT22;8371;52.272;9.746;2023-10-19T11:10:07;13.40;80.10
16517;DHT22;8371;52.272;9.746;2023-10-19T11:12:35;13.40;79.80
16517;DHT22;8371;52.272;9.746;2023-10-19T11:15:03;13.40;79.70
16517;DHT22;8371;52.272;9.746;2023-10-19T11:17:31;13.40;79.60
16517;DHT22;8371;52.272;9.746;2023-10-19T11:19:58;13.40;79.70
16517;DHT22;8371;52.272;9.746;2023-10-19T11:22:24;13.50;79.80
16517;DHT22;8371;52.272;9.746;2023-10-19T11:24:55;13.40;79.60
16517;DHT22;8371;52.272;9.746;2023-10-19T11:27:25;13.40;79.60
16517;DHT22;8371;52.272;9.746;2023-10-19T11:32:22;13.50;79.70
16517;DHT22;8371;52.272;9.746;2023-10-19T11:34:50;13.50;79.90
16517;DHT22;8371;52.272;9.746;2023-10-19T11:37:15;13.50;79.90
16517;DHT22;8371;52.272;9.746;2023-10-19T11:39:42;13.50;79.90
16517;DHT22;8371;52.272;9.746;2023-10-19T11:42:07;13.50;79.80
16517;DHT22;8371;52.272;9.746;2023-10-19T11:44:33;13.50;79.80
16517;DHT22;8371;52.272;9.746;2023-10-19T11:47:02;13.60;79.70
16517;DHT22;8371;52.272;9.746;2023-10-19T11:49:28;13.60;79.70
16517;DHT22;8371;52.272;9.746;2023-10-19T11:51:54;13.60;79.50
16517;DHT22;8371;52.272;9.746;2023-10-19T11:54:20;13.60;79.50
16517;DHT22;8371;52.272;9.746;2023-10-19T11:56:46;13.60;79.70
16517;DHT22;8371;52.272;9.746;2023-10-19T11:59:13;13.60;79.60
16517;DHT22;8371;52.272;9.746;2023-10-19T12:01:41;13.60;79.40
16517;DHT22;8371;52.272;9.746;2023-10-19T12:04:08;13.60;79.40
16517;DHT22;8371;52.272;9.746;2023-10-19T12:06:35;13.60;79.40
16517;DHT22;8371;52.272;9.746;2023-10-19T12:09:01;13.60;79.40
16517;DHT22;8371;52.272;9.746;2023-10-19T12:11:28;13.50;79.50
16517;DHT22;8371;52.272;9.746;2023-10-19T12:13:55;13.60;79.70
16517;DHT22;8371;52.272;9.746;2023-10-19T12:16:21;13.60;80.00
16517;DHT22;8371;52.272;9.746;2023-10-19T12:18:48;13.60;79.90
16517;DHT22;8371;52.272;9.746;2023-10-19T12:21:14;13.60;79.70
16517;DHT22;8371;52.272;9.746;2023-10-19T12:23:41;13.60;79.70
16517;DHT22;8371;52.272;9.746;2023-10-19T12:26:07;13.70;79.70
16517;DHT22;8371;52.272;9.746;2023-10-19T12:28:41;13.70;79.70
16517;DHT22;8371;52.272;9.746;2023-10-19T12:31:07;13.70;80.00
16517;DHT22;8371;52.272;9.746;2023-10-19T12:33:37;13.70;80.20
16517;DHT22;8371;52.272;9.746;2023-10-19T12:36:05;13.80;80.10
16517;DHT22;8371;52.272;9.746;2023-10-19T12:38:50;13.90;80.10
16517;DHT22;8371;52.272;9.746;2023-10-19T12:41:17;13.90;80.30
16517;DHT22;8371;52.272;9.746;2023-10-19T12:43:43;14.00;80.30
16517;DHT22;8371;52.272;9.746;2023-10-19T12:46:09;14.00;80.40
16517;DHT22;8371;52.272;9.746;2023-10-19T12:48:37;14.10;80.10
16517;DHT22;8371;52.272;9.746;2023-10-19T12:51:04;14.20;79.90
16517;DHT22;8371;52.272;9.746;2023-10-19T12:53:31;14.20;79.50
16517;DHT22;8371;52.272;9.746;2023-10-19T12:55:58;14.20;79.40
16517;DHT22;8371;52.272;9.746;2023-10-19T12:58:25;14.20;79.30
16517;DHT22;8371;52.272;9.746;2023-10-19T13:00:53;14.20;79.20
16517;DHT22;8371;52.272;9.746;2023-10-19T13:03:21;14.20;79.20
16517;DHT22;8371;52.272;9.746;2023-10-19T13:05:47;14.20;79.30
16517;DHT22;8371;52.272;9.746;2023-10-19T13:08:15;14.30;79.40
16517;DHT22;8371;52.272;9.746;2023-10-19T13:10:43;14.30;79.70
16517;DHT22;8371;52.272;9.746;2023-10-19T13:13:11;14.30;79.70
16517;DHT22;8371;52.272;9.746;2023-10-19T13:15:41;14.40;79.70
16517;DHT22;8371;52.272;9.746;2023-10-19T13:18:08;14.40;79.40
16517;DHT22;8371;52.272;9.746;2023-10-19T13:20:39;14.40;78.90
16517;DHT22;8371;52.272;9.746;2023-10-19T13:23:07;14.40;78.80
16517;DHT22;8371;52.272;9.746;2023-10-19T13:25:35;14.40;78.80
16517;DHT22;8371;52.272;9.746;2023-10-19T13:28:19;14.30;78.70
16517;DHT22;8371;52.272;9.746;2023-10-19T13:30:50;14.30;79.70
16517;DHT22;8371;52.272;9.746;2023-10-19T13:33:17;14.30;79.00
16517;DHT22;8371;52.272;9.746;2023-10-19T13:35:44;14.30;78.90
16517;DHT22;8371;52.272;9.746;2023-10-19T13:38:11;14.20;78.70
16517;DHT22;8371;52.272;9.746;2023-10-19T13:40:40;14.20;78.80
16517;DHT22;8371;52.272;9.746;2023-10-19T13:43:07;14.20;78.90
16517;DHT22;8371;52.272;9.746;2023-10-19T13:45:34;14.20;79.00
16517;DHT22;8371;52.272;9.746;2023-10-19T13:48:04;14.20;79.00
16517;DHT22;8371;52.272;9.746;2023-10-19T13:50:31;14.10;78.90
16517;DHT22;8371;52.272;9.746;2023-10-19T13:52:58;14.10;78.90
16517;DHT22;8371;52.272;9.746;2023-10-19T13:55:25;14.10;78.90
16517;DHT22;8371;52.272;9.746;2023-10-19T13:57:51;14.00;79.00
16517;DHT22;8371;52.272;9.746;2023-10-19T14:00:18;14.10;79.00
16517;DHT22;8371;52.272;9.746;2023-10-19T14:02:51;14.00;79.10
16517;DHT22;8371;52.272;9.746;2023-10-19T14:05:18;14.00;79.20
16517;DHT22;8371;52.272;9.746;2023-10-19T14:07:45;14.00;79.10
16517;DHT22;8371;52.272;9.746;2023-10-19T14:10:12;13.90;79.10
16517;DHT22;8371;52.272;9.746;2023-10-19T14:12:39;13.90;79.00
16517;DHT22;8371;52.272;9.746;2023-10-19T14:15:16;13.90;79.10
16517;DHT22;8371;52.272;9.746;2023-10-19T14:17:43;13.90;79.10
16517;DHT22;8371;52.272;9.746;2023-10-19T14:20:12;13.90;79.20
16517;DHT22;8371;52.272;9.746;2023-10-19T14:25:07;13.80;79.20
16517;DHT22;8371;52.272;9.746;2023-10-19T14:27:35;13.80;79.40
16517;DHT22;8371;52.272;9.746;2023-10-19T14:30:01;13.80;79.40
16517;DHT22;8371;52.272;9.746;2023-10-19T14:32:27;13.80;79.40
16517;DHT22;8371;52.272;9.746;2023-10-19T14:34:52;13.70;79.40
16517;DHT22;8371;52.272;9.746;2023-10-19T14:37:19;13.70;79.40
16517;DHT22;8371;52.272;9.746;2023-10-19T14:39:45;13.70;79.50
16517;DHT22;8371;52.272;9.746;2023-10-19T14:42:11;13.80;79.40
16517;DHT22;8371;52.272;9.746;2023-10-19T14:44:36;13.70;79.40
16517;DHT22;8371;52.272;9.746;2023-10-19T14:47:02;13.70;79.30
16517;DHT22;8371;52.272;9.746;2023-10-19T14:49:30;13.70;79.20
16517;DHT22;8371;52.272;9.746;2023-10-19T14:51:56;13.70;79.20
16517;DHT22;8371;52.272;9.746;2023-10-19T14:54:21;13.60;79.30
16517;DHT22;8371;52.272;9.746;2023-10-19T14:56:47;13.60;79.50
16517;DHT22;8371;52.272;9.746;2023-10-19T14:59:13;13.60;79.60
16517;DHT22;8371;52.272;9.746;2023-10-19T15:01:39;13.50;79.50
16517;DHT22;8371;52.272;9.746;2023-10-19T15:04:05;13.50;79.60
16517;DHT22;8371;52.272;9.746;2023-10-19T15:06:31;13.50;79.60
16517;DHT22;8371;52.272;9.746;2023-10-19T15:08:57;13.50;79.70
16517;DHT22;8371;52.272;9.746;2023-10-19T15:11:23;13.50;79.50
16517;DHT22;8371;52.272;9.746;2023-10-19T15:13:50;13.50;79.60
16517;DHT22;8371;52.272;9.746;2023-10-19T15:16:16;13.40;79.50
16517;DHT22;8371;52.272;9.746;2023-10-19T15:18:42;13.40;79.60
16517;DHT22;8371;52.272;9.746;2023-10-19T15:21:09;13.40;79.80
16517;DHT22;8371;52.272;9.746;2023-10-19T15:23:35;13.30;79.70
16517;DHT22;8371;52.272;9.746;2023-10-19T15:26:01;13.30;79.70
16517;DHT22;8371;52.272;9.746;2023-10-19T15:28:28;13.30;79.70
16517;DHT22;8371;52.272;9.746;2023-10-19T15:31:01;13.30;79.80
16517;DHT22;8371;52.272;9.746;2023-10-19T15:33:26;13.20;79.70
16517;DHT22;8371;52.272;9.746;2023-10-19T15:35:55;13.20;79.80
16517;DHT22;8371;52.272;9.746;2023-10-19T15:38:21;13.20;80.00
16517;DHT22;8371;52.272;9.746;2023-10-19T15:40:48;13.10;79.90
16517;DHT22;8371;52.272;9.746;2023-10-19T15:43:15;13.10;79.80
16517;DHT22;8371;52.272;9.746;2023-10-19T15:45:41;13.10;79.90
16517;DHT22;8371;52.272;9.746;2023-10-19T15:48:09;13.10;79.90
16517;DHT22;8371;52.272;9.746;2023-10-19T15:50:39;13.00;79.90
16517;DHT22;8371;52.272;9.746;2023-10-19T15:53:07;13.00;79.90
16517;DHT22;8371;52.272;9.746;2023-10-19T15:55:33;12.90;79.90
16517;DHT22;8371;52.272;9.746;2023-10-19T15:57:58;12.90;80.00
16517;DHT22;8371;52.272;9.746;2023-10-19T16:00:24;12.90;80.00
16517;DHT22;8371;52.272;9.746;2023-10-19T16:02:50;12.80;80.10